Terminal Aerodrome Forecast
Issued by NWS Portland, OR

Home | Current Version | Previous Version | Text Only | Print | Product List | Glossary On
Versions: 1 2 3 4 5 6 7 8 9 10 11 12 13 14 15 16 17 18 19 20
000
FTUS46 KPQR 060539
TAFAST
TAF
KAST 060539Z 0606/0706 VRB03KT P6SM SCT250
     FM061300 35004KT P6SM FEW015 OVC019
     FM061800 35010KT P6SM BKN250
     FM062300 32015G25KT P6SM BKN250=

USA.gov is the U.S. government's official web portal to all federal, state and local government web resources and services.